createdAt,value
2024-03-14T00:00:50.579Z,1.20
2024-03-14T00:02:22.211Z,0.73
2024-03-14T00:03:57.000Z,0.70
2024-03-14T00:05:28.869Z,0.60
2024-03-14T00:07:00.473Z,0.35
2024-03-14T00:08:32.043Z,0.32
2024-03-14T00:10:05.998Z,0.60
2024-03-14T00:11:37.865Z,0.75
2024-03-14T00:13:09.492Z,0.50
2024-03-14T00:14:45.842Z,0.50
2024-03-14T00:16:18.037Z,0.68
2024-03-14T00:17:49.919Z,0.75
2024-03-14T00:19:21.553Z,0.40
2024-03-14T00:20:54.084Z,0.43
2024-03-14T00:22:26.468Z,0.65
2024-03-14T00:23:58.098Z,0.55
2024-03-14T00:25:29.797Z,0.75
2024-03-14T00:27:02.175Z,0.52
2024-03-14T00:28:34.794Z,0.35
2024-03-14T00:30:12.241Z,0.50
2024-03-14T00:31:44.491Z,0.85
2024-03-14T00:33:16.230Z,0.43
2024-03-14T00:34:48.403Z,0.75
2024-03-14T00:36:20.116Z,0.45
2024-03-14T00:37:52.630Z,0.65
2024-03-14T00:39:24.341Z,1.15
2024-03-14T00:40:55.926Z,0.63
2024-03-14T00:42:27.978Z,0.73
2024-03-14T00:44:00.269Z,0.57
2024-03-14T00:45:33.171Z,0.68
2024-03-14T00:47:06.305Z,0.55
2024-03-14T00:48:38.979Z,0.43
2024-03-14T00:50:11.542Z,0.45
2024-03-14T00:51:45.725Z,0.60
2024-03-14T00:53:17.528Z,0.43
2024-03-14T00:54:49.115Z,0.40
2024-03-14T00:56:22.014Z,0.70
2024-03-14T00:57:53.711Z,0.68
2024-03-14T00:59:27.914Z,0.43
2024-03-14T01:01:00.716Z,0.43
2024-03-14T01:02:32.428Z,0.55
2024-03-14T01:04:05.463Z,0.40
2024-03-14T01:05:38.881Z,0.70
2024-03-14T01:07:10.523Z,0.50
2024-03-14T01:08:42.116Z,0.85
2024-03-14T01:10:14.747Z,0.57
2024-03-14T01:11:46.425Z,0.35
2024-03-14T01:13:18.057Z,0.45
2024-03-14T01:14:49.771Z,0.73
2024-03-14T01:16:21.475Z,0.50
2024-03-14T01:17:53.160Z,0.95
2024-03-14T01:19:26.281Z,0.50
2024-03-14T01:20:58.099Z,0.55
2024-03-14T01:22:30.347Z,0.57
2024-03-14T01:24:01.953Z,0.52
2024-03-14T01:25:33.621Z,0.57
2024-03-14T01:27:05.612Z,0.43
2024-03-14T01:28:37.282Z,0.60
2024-03-14T01:30:13.632Z,0.75
2024-03-14T01:31:47.155Z,0.40
2024-03-14T01:33:18.843Z,0.50
2024-03-14T01:34:50.632Z,0.40
2024-03-14T01:36:22.384Z,0.40
2024-03-14T01:37:54.107Z,0.35
2024-03-14T01:39:25.807Z,0.70
2024-03-14T01:40:57.479Z,0.60
2024-03-14T01:42:29.620Z,0.70
2024-03-14T01:44:01.525Z,0.50
2024-03-14T01:45:33.577Z,0.63
2024-03-14T01:47:06.893Z,0.55
2024-03-14T01:48:38.783Z,0.85
2024-03-14T01:50:12.283Z,0.68
2024-03-14T01:51:45.295Z,0.43
2024-03-14T01:53:16.905Z,0.40
2024-03-14T01:54:50.154Z,0.75
2024-03-14T01:56:25.890Z,0.45
2024-03-14T01:57:59.649Z,0.70
2024-03-14T01:59:31.539Z,0.50
2024-03-14T02:01:04.779Z,0.55
2024-03-14T02:02:36.646Z,0.65
2024-03-14T02:04:19.118Z,0.50
2024-03-14T02:07:36.778Z,0.40
2024-03-14T02:09:09.314Z,0.60
2024-03-14T02:12:17.652Z,0.65
2024-03-14T02:13:49.988Z,0.73
2024-03-14T02:15:21.793Z,0.40
2024-03-14T02:16:53.521Z,0.52
2024-03-14T02:18:25.215Z,0.68
2024-03-14T02:19:57.265Z,0.68
2024-03-14T02:21:29.080Z,0.50
2024-03-14T02:23:00.857Z,0.40
2024-03-14T02:24:32.488Z,0.57
2024-03-14T02:26:04.237Z,0.80
2024-03-14T02:27:36.431Z,0.75
2024-03-14T02:29:10.920Z,0.57
2024-03-14T02:30:43.117Z,0.47
2024-03-14T02:32:14.872Z,0.60
2024-03-14T02:33:46.564Z,0.50
2024-03-14T02:35:18.243Z,0.45
2024-03-14T02:36:49.873Z,0.50
2024-03-14T02:38:21.898Z,0.50
2024-03-14T02:39:54.493Z,0.70
2024-03-14T02:41:27.060Z,1.55
2024-03-14T02:42:58.712Z,0.45
2024-03-14T02:44:30.346Z,0.68
2024-03-14T02:46:01.962Z,0.73
2024-03-14T02:47:33.776Z,0.60
2024-03-14T02:49:06.229Z,0.65
2024-03-14T02:50:37.851Z,0.52
2024-03-14T02:52:09.521Z,0.50
2024-03-14T02:53:41.125Z,0.63
2024-03-14T02:55:14.081Z,0.57
2024-03-14T02:56:48.601Z,0.70
2024-03-14T02:58:20.424Z,0.70
2024-03-14T02:59:53.581Z,0.82
2024-03-14T03:01:25.244Z,0.52
2024-03-14T03:02:56.925Z,0.73
2024-03-14T03:04:31.725Z,0.63
2024-03-14T03:06:06.504Z,1.30
2024-03-14T03:07:38.389Z,0.57
2024-03-14T03:09:11.202Z,0.45
2024-03-14T03:10:43.178Z,0.90
2024-03-14T03:12:14.965Z,0.63
2024-03-14T03:13:46.660Z,0.40
2024-03-14T03:15:18.593Z,0.85
2024-03-14T03:16:50.548Z,0.60
2024-03-14T03:18:22.506Z,0.55
2024-03-14T03:19:54.634Z,0.63
2024-03-14T03:21:26.671Z,0.73
2024-03-14T03:23:07.520Z,0.40
2024-03-14T03:24:39.218Z,0.40
2024-03-14T03:26:10.848Z,0.45
2024-03-14T03:27:43.750Z,0.40
2024-03-14T03:29:15.457Z,0.70
2024-03-14T03:30:47.082Z,0.73
2024-03-14T03:32:21.043Z,0.65
2024-03-14T03:33:52.797Z,1.13
2024-03-14T03:35:26.683Z,0.63
2024-03-14T03:36:58.674Z,0.70
2024-03-14T03:38:30.296Z,0.52
2024-03-14T03:40:02.156Z,0.52
2024-03-14T03:41:33.758Z,0.60
2024-03-14T03:43:05.581Z,0.47
2024-03-14T03:44:37.191Z,0.65
2024-03-14T03:46:08.827Z,0.75
2024-03-14T03:47:43.640Z,0.40
2024-03-14T03:49:16.207Z,0.50
2024-03-14T03:50:50.068Z,0.52
2024-03-14T03:52:21.726Z,0.75
2024-03-14T03:53:53.599Z,0.68
2024-03-14T03:55:26.342Z,0.68
2024-03-14T03:56:59.343Z,0.70
2024-03-14T03:58:33.764Z,0.93
2024-03-14T04:00:25.931Z,1.40
2024-03-14T04:01:57.580Z,1.70
2024-03-14T04:03:29.605Z,3.33
2024-03-14T04:05:01.329Z,3.08
2024-03-14T04:06:34.473Z,4.18
2024-03-14T04:08:07.023Z,5.75
2024-03-14T04:09:38.718Z,8.00
2024-03-14T04:11:12.789Z,6.57
2024-03-14T04:12:45.829Z,9.57
2024-03-14T04:14:17.457Z,7.60
2024-03-14T04:15:49.160Z,8.52
2024-03-14T04:17:21.083Z,8.70
2024-03-14T04:18:52.717Z,6.88
2024-03-14T04:20:27.618Z,8.05
2024-03-14T04:22:00.065Z,4.72
2024-03-14T04:23:31.691Z,4.53
2024-03-14T04:25:11.689Z,2.70
2024-03-14T04:26:44.803Z,2.25
2024-03-14T04:28:19.651Z,2.13
2024-03-14T04:29:51.665Z,1.40
2024-03-14T04:31:23.344Z,0.82
2024-03-14T04:32:55.257Z,0.82
2024-03-14T04:34:26.940Z,1.08
2024-03-14T04:35:58.565Z,1.10
2024-03-14T04:37:30.460Z,1.13
2024-03-14T04:39:02.723Z,1.10
2024-03-14T04:40:34.379Z,1.00
2024-03-14T04:42:06.809Z,0.82
2024-03-14T04:43:39.340Z,0.88
2024-03-14T04:45:14.218Z,0.95
2024-03-14T04:46:46.273Z,1.05
2024-03-14T04:48:18.050Z,0.85
2024-03-14T04:49:49.769Z,0.55
2024-03-14T04:51:21.577Z,0.93
2024-03-14T04:52:53.332Z,1.13
2024-03-14T04:54:25.481Z,1.75
2024-03-14T04:55:57.125Z,0.70
2024-03-14T04:57:28.865Z,0.98
2024-03-14T04:59:02.377Z,0.93
2024-03-14T05:00:34.237Z,1.95
2024-03-14T05:02:06.133Z,1.23
2024-03-14T05:03:38.936Z,1.65
2024-03-14T05:05:11.347Z,1.65
2024-03-14T05:06:46.502Z,1.88
2024-03-14T05:08:18.080Z,2.33
2024-03-14T05:09:50.316Z,1.85
2024-03-14T05:11:25.140Z,2.22
2024-03-14T05:12:58.327Z,3.05
2024-03-14T05:14:29.951Z,3.03
2024-03-14T05:16:01.711Z,2.83
2024-03-14T05:17:33.410Z,3.00
2024-03-14T05:19:05.818Z,4.15
2024-03-14T05:20:37.767Z,4.25
2024-03-14T05:22:09.471Z,2.22
2024-03-14T05:23:41.189Z,2.08
2024-03-14T05:25:13.918Z,1.83
2024-03-14T05:26:46.248Z,1.73
2024-03-14T05:28:17.862Z,1.58
2024-03-14T05:29:49.573Z,1.50
2024-03-14T05:31:21.228Z,1.35
2024-03-14T05:32:53.067Z,2.15
2024-03-14T05:34:24.920Z,1.70
2024-03-14T05:35:56.575Z,1.40
2024-03-14T05:37:28.506Z,2.00
2024-03-14T05:39:00.179Z,1.88
2024-03-14T05:40:32.080Z,1.80
2024-03-14T05:42:04.913Z,1.17
2024-03-14T05:43:37.199Z,2.60
2024-03-14T05:45:10.287Z,2.60
2024-03-14T05:46:42.348Z,2.83
2024-03-14T05:48:14.124Z,2.13
2024-03-14T05:49:45.866Z,1.88
2024-03-14T05:51:19.310Z,1.67
2024-03-14T05:52:53.189Z,1.05
2024-03-14T05:54:25.170Z,1.08
2024-03-14T05:55:56.878Z,1.02
2024-03-14T05:57:28.675Z,0.98
2024-03-14T05:59:00.686Z,0.90
2024-03-14T06:00:33.469Z,0.90
2024-03-14T06:02:05.536Z,1.42
2024-03-14T06:03:37.323Z,1.02
2024-03-14T06:05:09.205Z,1.48
2024-03-14T06:06:41.025Z,1.42
2024-03-14T06:08:12.755Z,2.08
2024-03-14T06:09:44.733Z,3.20
2024-03-14T06:11:16.390Z,4.65
2024-03-14T06:12:48.016Z,5.38
2024-03-14T06:14:20.125Z,6.00
2024-03-14T06:15:51.900Z,6.15
2024-03-14T06:17:23.584Z,5.82
2024-03-14T06:18:55.925Z,5.28
2024-03-14T06:20:28.243Z,5.20
2024-03-14T06:22:00.003Z,3.95
2024-03-14T06:23:31.665Z,4.47
2024-03-14T06:25:03.601Z,3.55
2024-03-14T06:26:38.283Z,4.50
2024-03-14T06:28:09.860Z,4.03
2024-03-14T06:29:44.939Z,4.50
2024-03-14T06:31:16.795Z,5.53
2024-03-14T06:32:48.772Z,5.25
2024-03-14T06:34:20.748Z,3.10
2024-03-14T06:35:52.402Z,2.45
2024-03-14T06:37:26.832Z,2.92
2024-03-14T06:38:58.500Z,1.70
2024-03-14T06:40:33.176Z,1.65
2024-03-14T06:42:05.588Z,1.65
2024-03-14T06:43:37.214Z,1.33
2024-03-14T06:45:12.156Z,2.03
2024-03-14T06:46:44.330Z,2.65
2024-03-14T06:48:16.817Z,3.42
2024-03-14T06:49:48.456Z,3.33
2024-03-14T06:51:20.535Z,2.65
2024-03-14T06:52:52.132Z,1.42
2024-03-14T06:54:23.822Z,1.25
2024-03-14T06:55:56.994Z,0.73
2024-03-14T06:57:28.712Z,1.30
2024-03-14T06:59:00.338Z,0.50
2024-03-14T07:00:32.073Z,0.50
2024-03-14T07:02:03.748Z,0.70
2024-03-14T07:03:35.705Z,0.60
2024-03-14T07:05:11.255Z,0.70
2024-03-14T07:06:43.433Z,0.43
2024-03-14T07:08:15.432Z,0.57
2024-03-14T07:09:47.429Z,0.70
2024-03-14T07:11:19.122Z,0.82
2024-03-14T07:12:51.021Z,0.75
2024-03-14T07:14:24.195Z,0.63
2024-03-14T07:15:56.273Z,0.73
2024-03-14T07:17:28.472Z,0.73
2024-03-14T07:19:00.356Z,0.68
2024-03-14T07:20:37.086Z,0.55
2024-03-14T07:22:10.823Z,0.65
2024-03-14T07:23:42.807Z,1.02
2024-03-14T07:25:14.628Z,0.50
2024-03-14T07:26:47.510Z,0.60
2024-03-14T07:28:20.231Z,0.63
2024-03-14T07:29:52.779Z,0.60
2024-03-14T07:31:24.449Z,0.85
2024-03-14T07:32:56.173Z,0.57
2024-03-14T07:34:27.891Z,0.60
2024-03-14T07:35:59.927Z,0.73
2024-03-14T07:37:31.621Z,0.63
2024-03-14T07:39:03.507Z,0.63
2024-03-14T07:40:35.258Z,0.75
2024-03-14T07:42:07.585Z,0.63
2024-03-14T07:43:42.561Z,1.35
2024-03-14T07:45:20.691Z,0.70
2024-03-14T07:46:52.746Z,0.45
2024-03-14T07:48:24.495Z,0.40
2024-03-14T07:49:56.233Z,0.50
2024-03-14T07:51:27.946Z,0.95
2024-03-14T07:53:01.042Z,0.45
2024-03-14T07:54:33.274Z,1.15
2024-03-14T07:56:10.486Z,0.65
2024-03-14T07:57:42.381Z,0.68
2024-03-14T07:59:14.123Z,0.38
2024-03-14T08:00:47.387Z,0.47
2024-03-14T08:02:22.195Z,0.82
2024-03-14T08:03:54.000Z,0.88
2024-03-14T08:05:27.081Z,0.60
2024-03-14T08:07:00.650Z,0.50
2024-03-14T08:08:34.090Z,0.70
2024-03-14T08:10:09.658Z,0.55
2024-03-14T08:11:42.412Z,0.52
2024-03-14T08:13:24.823Z,0.70
2024-03-14T08:18:06.066Z,0.65
2024-03-14T08:19:38.389Z,0.68
2024-03-14T08:21:14.093Z,0.50
2024-03-14T08:22:46.016Z,0.60
2024-03-14T08:24:20.254Z,0.65
2024-03-14T08:25:51.941Z,0.77
2024-03-14T08:27:26.023Z,0.52
2024-03-14T08:28:57.644Z,0.50
2024-03-14T08:30:29.525Z,0.60
2024-03-14T08:32:01.203Z,0.77
2024-03-14T08:33:33.977Z,0.43
2024-03-14T08:35:06.683Z,0.63
2024-03-14T08:36:44.341Z,0.75
2024-03-14T08:38:16.248Z,0.52
2024-03-14T08:39:47.936Z,0.60
2024-03-14T08:41:19.609Z,0.60
2024-03-14T08:42:54.043Z,1.10
2024-03-14T08:44:27.594Z,0.55
2024-03-14T08:45:59.239Z,0.50
2024-03-14T08:47:31.916Z,0.50
2024-03-14T08:49:03.789Z,1.15
2024-03-14T08:50:36.504Z,0.60
2024-03-14T08:52:08.368Z,0.50
2024-03-14T08:53:58.784Z,0.60
2024-03-14T08:55:38.209Z,0.60
2024-03-14T08:57:10.582Z,0.52
2024-03-14T08:58:42.282Z,0.50
2024-03-14T09:00:19.033Z,0.47
2024-03-14T09:01:51.566Z,0.50
2024-03-14T09:03:23.807Z,0.43
2024-03-14T09:04:58.171Z,0.93
2024-03-14T09:06:32.243Z,0.40
2024-03-14T09:08:04.213Z,0.40
2024-03-14T09:09:36.033Z,0.50
2024-03-14T09:11:08.366Z,0.70
2024-03-14T09:12:40.121Z,0.50
2024-03-14T09:14:11.916Z,0.43
2024-03-14T09:15:44.121Z,0.50
2024-03-14T09:17:16.223Z,0.85
2024-03-14T09:18:47.820Z,0.55
2024-03-14T09:20:21.949Z,0.38
2024-03-14T09:21:53.658Z,0.50
2024-03-14T09:23:30.500Z,0.52
2024-03-14T09:25:02.854Z,0.40
2024-03-14T09:26:35.640Z,0.50
2024-03-14T09:28:10.145Z,0.55
2024-03-14T09:29:41.761Z,0.52
2024-03-14T09:31:13.421Z,0.43
2024-03-14T09:32:45.194Z,0.60
2024-03-14T09:34:18.913Z,0.43
2024-03-14T09:35:50.519Z,0.40
2024-03-14T09:37:26.360Z,0.60
2024-03-14T09:38:58.127Z,0.60
2024-03-14T09:40:31.038Z,0.50
2024-03-14T09:42:02.751Z,0.57
2024-03-14T09:43:34.445Z,0.50
2024-03-14T09:45:14.040Z,0.52
2024-03-14T09:46:55.778Z,0.40
2024-03-14T09:48:29.555Z,0.38
2024-03-14T09:50:07.991Z,0.38
2024-03-14T09:51:39.907Z,0.40
2024-03-14T09:53:16.076Z,0.52
2024-03-14T09:54:50.904Z,0.43
2024-03-14T09:56:22.740Z,0.75
2024-03-14T09:57:57.006Z,0.43
2024-03-14T09:59:28.881Z,0.40
2024-03-14T10:01:05.247Z,0.43
2024-03-14T10:02:37.087Z,0.30
2024-03-14T10:04:14.108Z,0.30
2024-03-14T10:05:46.038Z,0.60
2024-03-14T10:07:17.707Z,0.30
2024-03-14T10:08:50.102Z,0.40
2024-03-14T10:10:23.208Z,0.30
2024-03-14T10:12:02.769Z,0.40
2024-03-14T10:13:34.777Z,0.50
2024-03-14T10:15:17.692Z,0.40
2024-03-14T10:16:52.464Z,0.40
2024-03-14T10:18:28.272Z,0.43
2024-03-14T10:20:00.739Z,0.43
2024-03-14T10:21:32.730Z,0.50
2024-03-14T10:23:04.517Z,0.47
2024-03-14T10:24:36.184Z,0.30
2024-03-14T10:26:09.140Z,0.40
2024-03-14T10:27:53.656Z,0.40
2024-03-14T10:29:37.879Z,0.40
2024-03-14T10:31:09.702Z,0.50
2024-03-14T10:32:41.750Z,0.43
2024-03-14T10:34:15.537Z,0.60
2024-03-14T10:35:47.988Z,0.45
2024-03-14T10:37:23.585Z,0.38
2024-03-14T10:38:58.343Z,0.50
2024-03-14T10:40:30.634Z,0.50
2024-03-14T10:42:03.491Z,0.30
2024-03-14T10:43:42.524Z,0.40
2024-03-14T10:45:14.905Z,0.50
2024-03-14T10:46:51.401Z,0.47
2024-03-14T10:48:24.469Z,0.43
2024-03-14T10:49:57.602Z,0.50
2024-03-14T10:51:30.552Z,0.30
2024-03-14T10:53:03.146Z,0.38
2024-03-14T10:54:35.514Z,0.40
2024-03-14T10:56:17.008Z,0.40
2024-03-14T10:57:52.957Z,0.40
2024-03-14T10:59:27.117Z,0.40
2024-03-14T11:01:00.865Z,0.30
2024-03-14T11:02:32.863Z,0.60
2024-03-14T11:04:11.383Z,0.43
2024-03-14T11:05:57.398Z,0.50
2024-03-14T11:07:29.682Z,0.38
2024-03-14T11:09:04.875Z,0.40
2024-03-14T11:10:37.791Z,0.40
2024-03-14T11:12:15.971Z,0.50
2024-03-14T11:13:51.285Z,0.50
2024-03-14T11:15:25.558Z,0.50
2024-03-14T11:17:01.606Z,0.40
2024-03-14T11:18:39.518Z,0.40
2024-03-14T11:20:19.433Z,0.40
2024-03-14T11:21:52.962Z,0.38
2024-03-14T11:23:29.679Z,0.30
2024-03-14T11:25:02.359Z,0.50
2024-03-14T11:26:36.180Z,0.40
2024-03-14T11:28:08.941Z,0.30
2024-03-14T11:29:42.348Z,0.40
2024-03-14T11:31:14.634Z,0.38
2024-03-14T11:32:59.499Z,0.35
2024-03-14T11:34:32.767Z,0.30
2024-03-14T11:36:06.243Z,0.30
2024-03-14T11:37:51.478Z,0.40
2024-03-14T11:39:26.946Z,0.30
2024-03-14T11:42:35.807Z,0.20
2024-03-14T11:44:15.780Z,0.30
2024-03-14T11:45:50.329Z,0.40
2024-03-14T11:47:41.659Z,0.32
2024-03-14T11:49:17.794Z,0.30
2024-03-14T11:50:53.504Z,0.30
2024-03-14T11:52:25.305Z,0.38
2024-03-14T11:54:01.291Z,0.30
2024-03-14T11:55:33.933Z,0.40
2024-03-14T11:57:06.585Z,0.20
2024-03-14T11:58:42.111Z,0.30
2024-03-14T12:01:51.072Z,0.30
2024-03-14T12:03:24.182Z,0.30
2024-03-14T12:04:57.712Z,0.40
2024-03-14T12:06:30.136Z,0.40
2024-03-14T12:08:05.245Z,0.43
2024-03-14T12:09:37.211Z,0.30
2024-03-14T12:11:10.771Z,0.30
2024-03-14T12:12:42.754Z,0.30
2024-03-14T12:14:21.435Z,0.50
2024-03-14T12:16:03.904Z,0.80
2024-03-14T12:17:36.078Z,0.35
2024-03-14T12:19:12.877Z,0.45
2024-03-14T12:20:48.207Z,0.30
2024-03-14T12:22:21.790Z,0.43
2024-03-14T12:23:56.163Z,0.30
2024-03-14T12:25:29.077Z,0.30
2024-03-14T12:27:04.437Z,0.38
2024-03-14T12:28:36.666Z,0.40
2024-03-14T12:30:11.227Z,0.38
2024-03-14T12:31:48.222Z,0.40
2024-03-14T12:33:20.071Z,0.32
2024-03-14T12:34:51.944Z,0.40
2024-03-14T12:36:24.814Z,0.40
2024-03-14T12:37:56.542Z,0.30
2024-03-14T12:39:30.052Z,0.30
2024-03-14T12:41:02.032Z,0.40
2024-03-14T12:42:33.995Z,0.30
2024-03-14T12:44:07.918Z,0.22
2024-03-14T12:45:39.787Z,0.30
2024-03-14T12:47:11.705Z,0.28
2024-03-14T12:48:43.636Z,0.30
2024-03-14T12:50:22.419Z,0.40
2024-03-14T12:51:58.227Z,0.45
2024-03-14T12:53:32.542Z,0.40
2024-03-14T12:55:14.954Z,0.30
2024-03-14T12:56:47.124Z,0.40
2024-03-14T12:58:23.594Z,0.20
2024-03-14T12:59:57.019Z,0.40
2024-03-14T13:01:33.013Z,0.30
2024-03-14T13:03:04.969Z,0.40
2024-03-14T13:04:40.187Z,0.95
2024-03-14T13:06:23.028Z,0.35
2024-03-14T13:08:08.516Z,0.30
2024-03-14T13:09:40.360Z,0.30
2024-03-14T13:11:19.915Z,0.30
2024-03-14T13:12:58.866Z,0.20
2024-03-14T13:14:30.549Z,0.32
2024-03-14T13:16:16.431Z,0.30
2024-03-14T13:17:55.366Z,0.30
2024-03-14T13:19:27.370Z,0.40
2024-03-14T13:20:59.305Z,0.30
2024-03-14T13:22:31.540Z,0.45
2024-03-14T13:24:05.119Z,0.38
2024-03-14T13:25:36.971Z,0.40
2024-03-14T13:27:12.268Z,1.00
2024-03-14T13:28:44.285Z,0.20
2024-03-14T13:30:16.065Z,0.40
2024-03-14T13:31:47.762Z,0.75
2024-03-14T13:33:21.359Z,0.30
2024-03-14T13:34:53.358Z,0.60
2024-03-14T13:36:26.389Z,0.40
2024-03-14T13:37:59.016Z,0.32
2024-03-14T13:39:37.847Z,0.22
2024-03-14T13:41:09.908Z,0.45
2024-03-14T13:42:42.633Z,0.30
2024-03-14T13:44:14.376Z,0.30
2024-03-14T13:45:46.474Z,0.40
2024-03-14T13:47:24.047Z,0.30
2024-03-14T13:49:10.348Z,0.30
2024-03-14T13:50:42.360Z,0.40
2024-03-14T13:52:15.317Z,0.40
2024-03-14T13:53:51.933Z,0.50
2024-03-14T13:55:29.914Z,0.40
2024-03-14T13:57:03.132Z,0.40
2024-03-14T13:58:39.705Z,0.40
2024-03-14T14:00:13.164Z,0.32
2024-03-14T14:01:48.690Z,0.30
2024-03-14T14:03:23.170Z,0.30
2024-03-14T14:04:55.538Z,0.30
2024-03-14T14:06:27.340Z,0.32
2024-03-14T14:08:01.747Z,0.28
2024-03-14T14:09:34.651Z,0.30
2024-03-14T14:11:08.430Z,0.50
2024-03-14T14:12:40.316Z,0.30
2024-03-14T14:14:15.393Z,0.52
2024-03-14T14:15:48.990Z,0.32
2024-03-14T14:17:21.008Z,0.40
2024-03-14T14:18:52.730Z,0.50
2024-03-14T14:20:25.014Z,0.50
2024-03-14T14:21:58.073Z,0.40
2024-03-14T14:23:30.181Z,0.55
2024-03-14T14:25:01.858Z,0.32
2024-03-14T14:26:33.850Z,0.40
2024-03-14T14:28:05.886Z,0.25
2024-03-14T14:29:39.215Z,0.40
2024-03-14T14:31:13.404Z,0.50
2024-03-14T14:32:47.950Z,0.30
2024-03-14T14:34:19.644Z,0.47
2024-03-14T14:35:51.333Z,0.30
2024-03-14T14:37:22.976Z,0.30
2024-03-14T14:39:00.865Z,0.40
2024-03-14T14:40:32.920Z,0.35
2024-03-14T14:42:04.953Z,0.30
2024-03-14T14:43:36.656Z,0.50
2024-03-14T14:45:08.851Z,0.40
2024-03-14T14:46:41.858Z,0.38
2024-03-14T14:48:13.699Z,0.30
2024-03-14T14:49:45.440Z,0.30
2024-03-14T14:51:18.052Z,0.30
2024-03-14T14:52:50.002Z,0.32
2024-03-14T14:54:23.203Z,0.43
2024-03-14T14:55:56.211Z,0.30
2024-03-14T14:57:27.950Z,0.50
2024-03-14T14:58:59.711Z,0.30
2024-03-14T15:00:32.731Z,0.38
2024-03-14T15:02:06.262Z,0.40
2024-03-14T15:03:38.116Z,1.00
2024-03-14T15:05:11.401Z,0.40
2024-03-14T15:06:43.293Z,0.43
2024-03-14T15:08:15.173Z,0.35
2024-03-14T15:09:47.158Z,0.30
2024-03-14T15:11:20.651Z,0.38
2024-03-14T15:12:57.785Z,0.22
2024-03-14T15:14:32.707Z,0.30
2024-03-14T15:16:08.509Z,0.38
2024-03-14T15:17:41.301Z,0.30
2024-03-14T15:19:13.244Z,0.28
2024-03-14T15:20:48.823Z,0.40
2024-03-14T15:22:20.938Z,0.30
2024-03-14T15:23:52.637Z,0.35
2024-03-14T15:25:26.129Z,0.38
2024-03-14T15:26:59.204Z,0.30
2024-03-14T15:28:31.760Z,0.30
2024-03-14T15:30:03.835Z,0.38
2024-03-14T15:31:35.557Z,0.40
2024-03-14T15:33:07.370Z,0.73
2024-03-14T15:34:40.337Z,0.40
2024-03-14T15:36:16.632Z,0.20
2024-03-14T15:37:50.619Z,0.40
2024-03-14T15:39:22.321Z,0.30
2024-03-14T15:40:54.095Z,0.30
2024-03-14T15:42:25.743Z,0.40
2024-03-14T15:43:58.414Z,0.60
2024-03-14T15:45:30.128Z,0.40
2024-03-14T15:47:02.291Z,0.40
2024-03-14T15:48:34.043Z,0.43
2024-03-14T15:50:09.399Z,0.38
2024-03-14T15:51:41.248Z,0.38
2024-03-14T15:53:12.977Z,0.32
2024-03-14T15:54:44.903Z,0.38
2024-03-14T15:56:17.382Z,0.32
2024-03-14T15:57:49.308Z,0.30
2024-03-14T15:59:21.077Z,0.40
2024-03-14T16:00:53.628Z,0.38
2024-03-14T16:02:25.362Z,0.40
2024-03-14T16:03:57.238Z,0.30
2024-03-14T16:05:32.157Z,0.30
2024-03-14T16:07:04.150Z,0.40
2024-03-14T16:08:48.754Z,0.30
2024-03-14T16:10:26.874Z,0.38
2024-03-14T16:11:58.574Z,0.63
2024-03-14T16:13:30.307Z,0.35
2024-03-14T16:15:02.710Z,0.40
2024-03-14T16:16:36.125Z,0.40
2024-03-14T16:18:08.011Z,0.30
2024-03-14T16:19:39.865Z,0.30
2024-03-14T16:21:18.178Z,0.30
2024-03-14T16:22:51.090Z,0.47
2024-03-14T16:24:23.929Z,0.32
2024-03-14T16:25:56.328Z,0.40
2024-03-14T16:27:28.195Z,0.70
2024-03-14T16:28:59.942Z,0.30
2024-03-14T16:30:32.012Z,0.35
2024-03-14T16:32:05.391Z,0.40
2024-03-14T16:33:38.025Z,0.50
2024-03-14T16:35:16.934Z,0.32
2024-03-14T16:36:48.980Z,0.30
2024-03-14T16:38:20.701Z,0.95
2024-03-14T16:39:52.544Z,0.38
2024-03-14T16:41:24.897Z,0.40
2024-03-14T16:42:56.770Z,0.43
2024-03-14T16:44:30.934Z,0.30
2024-03-14T16:46:04.586Z,0.63
2024-03-14T16:47:36.334Z,0.30
2024-03-14T16:49:09.384Z,0.32
2024-03-14T16:50:41.439Z,0.35
2024-03-14T16:52:13.203Z,0.50
2024-03-14T16:53:44.827Z,0.32
2024-03-14T16:55:16.850Z,0.70
2024-03-14T16:56:49.335Z,0.38
2024-03-14T16:58:21.146Z,0.35
2024-03-14T16:59:54.658Z,0.40
2024-03-14T17:01:29.428Z,0.32
2024-03-14T17:03:03.644Z,0.40
2024-03-14T17:04:35.387Z,0.40
2024-03-14T17:06:07.241Z,0.30
2024-03-14T17:07:39.245Z,0.40
2024-03-14T17:09:14.396Z,0.50
2024-03-14T17:10:47.334Z,0.30
2024-03-14T17:12:19.049Z,0.30
2024-03-14T17:13:51.873Z,0.25
2024-03-14T17:15:23.775Z,0.45
2024-03-14T17:17:02.223Z,0.50
2024-03-14T17:18:39.870Z,0.50
2024-03-14T17:20:18.614Z,0.55
2024-03-14T17:21:51.281Z,0.45
2024-03-14T17:23:23.989Z,0.60
2024-03-14T17:24:55.917Z,0.40
2024-03-14T17:26:28.055Z,0.55
2024-03-14T17:28:00.043Z,0.40
2024-03-14T17:29:35.050Z,0.30
2024-03-14T17:31:07.021Z,0.30
2024-03-14T17:32:40.062Z,0.50
2024-03-14T17:34:12.026Z,0.55
2024-03-14T17:35:43.720Z,0.52
2024-03-14T17:37:16.381Z,0.30
2024-03-14T17:38:48.799Z,0.30
2024-03-14T17:40:20.815Z,0.43
2024-03-14T17:41:56.303Z,0.40
2024-03-14T17:43:30.111Z,0.32
2024-03-14T17:45:01.837Z,0.30
2024-03-14T17:46:33.587Z,0.30
2024-03-14T17:48:06.710Z,0.30
2024-03-14T17:49:39.272Z,0.32
2024-03-14T17:51:11.096Z,0.60
2024-03-14T17:52:44.375Z,0.40
2024-03-14T17:54:18.820Z,0.32
2024-03-14T17:55:51.851Z,0.30
2024-03-14T17:57:23.667Z,0.40
2024-03-14T17:58:56.409Z,0.43
2024-03-14T18:00:31.063Z,0.40
2024-03-14T18:02:05.644Z,0.40
2024-03-14T18:03:37.327Z,0.32
2024-03-14T18:05:14.079Z,0.30
2024-03-14T18:06:47.834Z,0.38
2024-03-14T18:08:19.545Z,0.30
2024-03-14T18:09:53.180Z,0.30
2024-03-14T18:11:24.998Z,0.40
2024-03-14T18:12:56.769Z,0.55
2024-03-14T18:14:29.566Z,0.30
2024-03-14T18:16:01.382Z,0.32
2024-03-14T18:17:33.425Z,0.30
2024-03-14T18:19:05.541Z,0.50
2024-03-14T18:20:37.757Z,0.50
2024-03-14T18:22:09.466Z,1.23
2024-03-14T18:23:41.301Z,0.38
2024-03-14T18:25:20.752Z,0.50
2024-03-14T18:26:52.665Z,0.40
2024-03-14T18:28:24.739Z,0.30
2024-03-14T18:29:56.408Z,0.25
2024-03-14T18:31:32.215Z,0.30
2024-03-14T18:34:35.921Z,0.43
2024-03-14T18:36:09.266Z,0.55
2024-03-14T18:37:40.942Z,0.30
2024-03-14T18:39:15.610Z,0.50
2024-03-14T18:40:48.988Z,0.45
2024-03-14T18:42:20.848Z,0.50
2024-03-14T18:43:53.899Z,0.55
2024-03-14T18:45:25.762Z,0.57
2024-03-14T18:46:58.006Z,0.30
2024-03-14T18:48:29.874Z,0.40
2024-03-14T18:50:02.540Z,0.40
2024-03-14T18:51:34.525Z,0.63
2024-03-14T18:53:13.946Z,0.40
2024-03-14T18:54:50.412Z,0.73
2024-03-14T18:56:22.230Z,0.50
2024-03-14T18:57:54.152Z,0.40
2024-03-14T18:59:25.949Z,0.40
2024-03-14T19:00:58.332Z,0.40
2024-03-14T19:02:32.134Z,0.43
2024-03-14T19:04:07.443Z,0.32
2024-03-14T19:05:39.116Z,0.52
2024-03-14T19:07:10.962Z,0.30
2024-03-14T19:08:42.633Z,0.40
2024-03-14T19:10:15.059Z,0.40
2024-03-14T19:11:47.019Z,0.40
2024-03-14T19:13:18.790Z,0.50
2024-03-14T19:14:50.559Z,0.52
2024-03-14T19:16:22.247Z,0.45
2024-03-14T19:17:54.094Z,0.40
2024-03-14T19:19:26.237Z,0.30
2024-03-14T19:20:57.928Z,0.40
2024-03-14T19:22:29.663Z,0.40
2024-03-14T19:24:01.469Z,0.40
2024-03-14T19:25:33.133Z,0.40
2024-03-14T19:27:06.746Z,0.30
2024-03-14T19:28:41.876Z,0.65
2024-03-14T19:30:17.686Z,0.32
2024-03-14T19:33:22.628Z,0.57
2024-03-14T19:34:55.166Z,0.50
2024-03-14T19:36:26.981Z,0.40
2024-03-14T19:37:59.080Z,0.30
2024-03-14T19:39:31.859Z,0.35
2024-03-14T19:41:04.863Z,0.40
2024-03-14T19:42:37.085Z,0.40
2024-03-14T19:44:08.865Z,0.20
2024-03-14T19:45:41.040Z,0.45
2024-03-14T19:47:12.980Z,0.45
2024-03-14T19:48:44.834Z,0.45
2024-03-14T19:50:16.589Z,0.65
2024-03-14T19:51:48.310Z,0.63
2024-03-14T19:53:20.355Z,0.50
2024-03-14T19:54:52.645Z,0.50
2024-03-14T19:56:25.623Z,0.47
2024-03-14T19:57:57.690Z,0.38
2024-03-14T19:59:29.369Z,0.30
2024-03-14T20:01:01.202Z,0.47
2024-03-14T20:02:32.910Z,0.55
2024-03-14T20:04:04.717Z,0.32
2024-03-14T20:05:36.422Z,0.52
2024-03-14T20:07:08.206Z,0.52
2024-03-14T20:08:39.902Z,0.32
2024-03-14T20:10:15.347Z,0.47
2024-03-14T20:11:47.505Z,0.40
2024-03-14T20:13:19.949Z,0.30
2024-03-14T20:14:51.594Z,0.50
2024-03-14T20:16:23.413Z,0.65
2024-03-14T20:17:56.173Z,0.45
2024-03-14T20:19:28.177Z,0.30
2024-03-14T20:21:00.007Z,0.38
2024-03-14T20:22:34.729Z,0.88
2024-03-14T20:24:07.834Z,0.40
2024-03-14T20:25:41.213Z,0.90
2024-03-14T20:27:13.906Z,0.40
2024-03-14T20:28:45.763Z,0.52
2024-03-14T20:30:18.955Z,0.40
2024-03-14T20:31:50.718Z,0.52
2024-03-14T20:33:22.477Z,0.50
2024-03-14T20:34:56.000Z,1.15
2024-03-14T20:36:28.370Z,0.35
2024-03-14T20:38:02.138Z,0.32
2024-03-14T20:39:42.487Z,0.82
2024-03-14T20:41:23.345Z,0.43
2024-03-14T20:42:58.058Z,0.52
2024-03-14T20:44:29.708Z,0.45
2024-03-14T20:46:01.442Z,0.45
2024-03-14T20:47:33.505Z,0.55
2024-03-14T20:49:05.471Z,0.50
2024-03-14T20:50:37.159Z,0.63
2024-03-14T20:52:11.160Z,0.40
2024-03-14T20:53:42.905Z,0.47